Time;durP1;ratioP1;P1;durP2;ratioP2;P2;SDS_P1;SDS_P2;PMS_P1;PMS_P2;Temp;Humidity;BMP_temperature;BMP_pressure;BME280_temperature;BME280_humidity;BME280_pressure;Samples;Min_cycle;Max_cycle;Signal;HPM_P1;HPM_P2
2021/11/05 00:00:06;;;;;;;12.90;12.40;;;20.30;99.90;;;;;;4954318;28;20452;-53
2021/11/05 00:02:34;;;;;;;12.93;12.53;;;20.30;99.90;;;;;;4954270;28;20452;-50
2021/11/05 00:05:01;;;;;;;12.50;12.00;;;20.20;99.90;;;;;;4953573;28;20449;-55
2021/11/05 00:07:27;;;;;;;12.43;11.93;;;20.20;99.90;;;;;;4953928;28;20448;-51
2021/11/05 00:09:54;;;;;;;13.90;13.23;;;20.20;99.90;;;;;;4953830;29;20448;-51
2021/11/05 00:12:21;;;;;;;13.43;12.90;;;20.20;99.90;;;;;;4953907;28;20441;-51
2021/11/05 00:14:48;;;;;;;13.77;13.17;;;20.10;99.90;;;;;;4953893;28;20495;-51
2021/11/05 00:17:15;;;;;;;13.00;12.47;;;20.20;99.90;;;;;;4953782;29;20452;-49
2021/11/05 00:19:43;;;;;;;12.13;11.70;;;20.20;99.90;;;;;;4953470;28;20468;-51
2021/11/05 00:22:09;;;;;;;12.93;12.43;;;20.20;99.90;;;;;;4953960;28;20449;-52
2021/11/05 00:24:36;;;;;;;12.93;12.53;;;20.20;99.90;;;;;;4953880;28;20802;-51
2021/11/05 00:27:03;;;;;;;14.17;13.47;;;20.20;99.90;;;;;;4953776;28;20452;-50
2021/11/05 00:29:30;;;;;;;12.20;11.80;;;20.20;99.90;;;;;;4953165;28;20481;-50
2021/11/05 00:31:57;;;;;;;12.50;12.00;;;20.10;99.90;;;;;;4953599;29;20527;-52
2021/11/05 00:34:23;;;;;;;13.37;12.87;;;20.10;99.90;;;;;;4952819;28;20546;-50
2021/11/05 00:36:51;;;;;;;13.27;12.77;;;20.10;99.90;;;;;;4953533;29;20452;-51
2021/11/05 00:39:19;;;;;;;13.25;12.65;;;20.10;99.90;;;;;;4953016;28;20818;-53
2021/11/05 00:41:48;;;;;;;12.63;12.23;;;20.10;99.90;;;;;;4953380;28;20209;-49
2021/11/05 00:44:18;;;;;;;12.60;12.20;;;20.10;99.90;;;;;;4953513;28;20453;-53
2021/11/05 00:46:46;;;;;;;12.67;12.17;;;20.10;99.90;;;;;;4934556;29;20481;-53
2021/11/05 00:49:13;;;;;;;13.57;12.87;;;20.20;99.90;;;;;;4933902;29;20469;-50
2021/11/05 00:51:41;;;;;;;14.33;13.73;;;20.20;99.90;;;;;;4934535;29;20453;-52
2021/11/05 00:54:09;;;;;;;13.90;13.40;;;20.10;99.90;;;;;;4934230;29;20536;-49
2021/11/05 00:56:36;;;;;;;12.60;12.20;;;20.10;99.90;;;;;;4951786;29;20535;-52
2021/11/05 00:59:03;;;;;;;13.60;13.00;;;20.10;99.90;;;;;;4953181;28;20597;-51
2021/11/05 01:01:30;;;;;;;13.07;12.57;;;20.10;99.90;;;;;;4953500;29;20811;-52
2021/11/05 01:03:57;;;;;;;13.33;12.83;;;20.10;99.90;;;;;;4953286;29;20453;-50
2021/11/05 01:06:25;;;;;;;13.60;13.10;;;20.10;99.90;;;;;;4953617;28;20475;-50
2021/11/05 01:08:52;;;;;;;13.17;12.67;;;20.10;99.90;;;;;;4953108;28;20473;-51
2021/11/05 01:11:20;;;;;;;13.90;13.30;;;20.10;99.90;;;;;;4953079;28;20452;-50
2021/11/05 01:13:47;;;;;;;12.80;12.30;;;20.10;99.90;;;;;;4952946;28;20839;-54
2021/11/05 01:16:14;;;;;;;13.50;12.90;;;20.10;99.90;;;;;;4953140;28;20516;-51
2021/11/05 01:18:40;;;;;;;13.97;13.47;;;20.10;99.90;;;;;;4952851;28;20477;-54
2021/11/05 01:21:07;;;;;;;13.80;13.20;;;20.00;99.90;;;;;;4953186;29;20868;-54
2021/11/05 01:23:34;;;;;;;13.80;13.10;;;20.00;99.90;;;;;;4953023;29;20456;-50
2021/11/05 01:26:01;;;;;;;13.33;12.73;;;20.00;99.90;;;;;;4952931;29;20452;-53
2021/11/05 01:28:29;;;;;;;13.33;12.83;;;19.80;99.90;;;;;;4952935;28;20468;-49
2021/11/05 01:30:56;;;;;;;13.43;12.93;;;19.90;99.90;;;;;;4952743;28;20468;-51
2021/11/05 01:33:23;;;;;;;14.07;13.47;;;19.80;99.90;;;;;;4953166;28;20452;-49
2021/11/05 01:35:51;;;;;;;12.77;12.37;;;19.90;99.90;;;;;;4952945;28;20493;-51
2021/11/05 01:38:18;;;;;;;13.37;12.87;;;19.80;99.90;;;;;;4952595;28;20477;-52
2021/11/05 01:40:45;;;;;;;13.23;12.63;;;19.80;99.90;;;;;;4952848;28;20453;-58
2021/11/05 01:43:14;;;;;;;14.13;13.53;;;19.80;99.90;;;;;;4952873;29;20444;-57
2021/11/05 01:45:44;;;;;;;13.30;12.80;;;19.80;99.90;;;;;;4955571;28;20572;-61
2021/11/05 01:48:11;;;;;;;14.50;13.80;;;19.80;99.90;;;;;;4956132;28;20849;-60
2021/11/05 01:50:39;;;;;;;13.70;13.10;;;19.80;99.90;;;;;;4956262;28;20460;-61
2021/11/05 01:53:06;;;;;;;12.77;12.33;;;19.70;99.90;;;;;;4956478;28;20958;-57
2021/11/05 01:55:33;;;;;;;13.23;12.60;;;19.70;99.90;;;;;;4956270;28;20480;-56
2021/11/05 01:57:59;;;;;;;13.77;13.27;;;19.70;99.90;;;;;;4956172;28;20476;-60
2021/11/05 02:00:29;;;;;;;14.83;14.03;;;19.70;99.90;;;;;;4955791;28;20811;-59
2021/11/05 02:02:57;;;;;;;13.73;13.17;;;19.60;99.90;;;;;;4956246;29;20449;-57
2021/11/05 02:05:24;;;;;;;12.80;12.30;;;19.60;99.90;;;;;;4956084;29;20449;-58
2021/11/05 02:07:53;;;;;;;13.83;13.23;;;19.50;99.90;;;;;;4956072;28;21021;-59
2021/11/05 02:10:22;;;;;;;13.80;13.20;;;19.50;99.90;;;;;;4955849;29;20456;-59
2021/11/05 02:12:51;;;;;;;13.93;13.33;;;19.60;99.90;;;;;;4955697;29;20449;-57
2021/11/05 02:15:18;;;;;;;14.20;13.60;;;19.60;99.90;;;;;;4955948;28;20546;-58
2021/11/05 02:17:46;;;;;;;13.13;12.60;;;19.60;99.90;;;;;;4955936;28;20472;-57
2021/11/05 02:20:18;;;;;;;14.20;13.60;;;19.50;99.90;;;;;;4955719;28;20816;-59
2021/11/05 02:22:47;;;;;;;14.20;13.57;;;19.50;99.90;;;;;;4955678;28;20455;-60
2021/11/05 02:25:14;;;;;;;13.93;13.33;;;19.50;99.90;;;;;;4955863;29;20480;-57
2021/11/05 02:27:41;;;;;;;13.73;13.13;;;19.50;99.90;;;;;;4955952;28;20456;-59
2021/11/05 02:30:09;;;;;;;13.30;12.90;;;19.40;99.90;;;;;;4955337;29;20456;-61
2021/11/05 02:32:36;;;;;;;14.20;13.60;;;19.40;99.90;;;;;;4955580;29;20464;-56
2021/11/05 02:35:04;;;;;;;13.70;13.10;;;19.40;99.90;;;;;;4955401;29;20596;-59
2021/11/05 02:37:30;;;;;;;13.77;13.20;;;19.50;99.90;;;;;;4955563;28;20962;-59
2021/11/05 02:39:59;;;;;;;13.80;13.30;;;19.50;99.90;;;;;;4955297;28;20461;-56
2021/11/05 02:42:26;;;;;;;12.60;12.10;;;19.40;99.90;;;;;;4955514;28;21028;-56
2021/11/05 02:44:53;;;;;;;13.53;13.00;;;19.40;99.90;;;;;;4955366;28;20461;-55
2021/11/05 02:47:24;;;;;;;13.70;13.13;;;19.40;99.90;;;;;;4955126;28;20459;-57
2021/11/05 02:49:52;;;;;;;13.43;12.83;;;19.30;99.90;;;;;;4954881;29;20456;-57
2021/11/05 02:52:18;;;;;;;12.83;12.33;;;19.30;99.90;;;;;;4955199;29;20955;-60
2021/11/05 02:54:45;;;;;;;13.53;12.93;;;19.40;99.90;;;;;;4955207;29;20456;-55
2021/11/05 02:57:14;;;;;;;13.43;12.83;;;19.40;99.90;;;;;;4954619;28;20453;-59
2021/11/05 02:59:41;;;;;;;12.93;12.43;;;19.40;99.90;;;;;;4954337;28;20475;-61
2021/11/05 03:02:08;;;;;;;13.93;13.33;;;19.40;99.90;;;;;;4955232;29;20452;-57
2021/11/05 03:04:36;;;;;;;12.53;12.13;;;19.40;99.90;;;;;;4954972;29;20444;-58
2021/11/05 03:07:07;;;;;;;12.70;12.20;;;19.40;99.90;;;;;;4955013;29;20449;-60
2021/11/05 03:09:35;;;;;;;13.40;12.80;;;19.30;99.90;;;;;;4954614;29;20477;-60
2021/11/05 03:12:04;;;;;;;12.30;11.87;;;19.40;99.90;;;;;;4954925;28;20456;-59
2021/11/05 03:14:32;;;;;;;13.10;12.50;;;19.30;99.90;;;;;;4954866;28;20440;-59
2021/11/05 03:16:59;;;;;;;12.50;12.00;;;19.30;99.90;;;;;;4954823;28;20488;-60
2021/11/05 03:19:25;;;;;;;12.03;11.63;;;19.30;99.90;;;;;;4954359;28;20468;-61
2021/11/05 03:21:52;;;;;;;13.03;12.43;;;19.20;99.90;;;;;;4954716;29;20456;-58
2021/11/05 03:24:19;;;;;;;12.87;12.37;;;19.20;99.90;;;;;;4954641;29;20455;-57
2021/11/05 03:26:46;;;;;;;13.00;12.40;;;19.20;99.90;;;;;;4954739;29;20445;-58
2021/11/05 03:29:13;;;;;;;12.67;12.17;;;19.20;99.90;;;;;;4953988;28;20842;-58
2021/11/05 03:31:41;;;;;;;12.70;12.20;;;19.20;99.90;;;;;;4954622;28;20472;-57
2021/11/05 03:34:08;;;;;;;13.13;12.63;;;19.20;99.90;;;;;;4954328;28;20453;-59
2021/11/05 03:36:35;;;;;;;12.60;12.13;;;19.30;99.90;;;;;;4953656;29;20496;-58
2021/11/05 03:39:02;;;;;;;12.20;11.70;;;19.30;99.90;;;;;;4953880;28;20819;-59
2021/11/05 03:41:29;;;;;;;12.97;12.50;;;19.20;99.90;;;;;;4954333;28;20453;-61
2021/11/05 03:43:56;;;;;;;12.30;11.90;;;19.20;99.90;;;;;;4954356;28;20837;-61
2021/11/05 03:46:22;;;;;;;13.30;12.70;;;19.20;99.90;;;;;;4954171;28;20452;-61
2021/11/05 03:48:51;;;;;;;13.00;12.50;;;19.20;99.90;;;;;;4953498;29;20480;-59
2021/11/05 03:51:18;;;;;;;12.17;11.70;;;19.20;99.90;;;;;;4954228;28;20958;-60
2021/11/05 03:53:44;;;;;;;12.13;11.73;;;19.20;99.90;;;;;;4954275;28;20482;-58
2021/11/05 03:56:11;;;;;;;12.83;12.23;;;19.20;99.90;;;;;;4953801;28;20495;-56
2021/11/05 03:58:38;;;;;;;12.27;11.87;;;19.20;99.90;;;;;;4953689;28;20472;-58
2021/11/05 04:01:05;;;;;;;11.37;10.97;;;19.20;99.90;;;;;;4953967;29;20816;-59
2021/11/05 04:03:32;;;;;;;11.70;11.30;;;19.20;99.90;;;;;;4954006;29;20449;-57
2021/11/05 04:06:00;;;;;;;12.13;11.70;;;19.10;99.90;;;;;;4953748;29;20539;-58
2021/11/05 04:08:26;;;;;;;11.60;11.10;;;19.10;99.90;;;;;;4952775;28;20472;-54
2021/11/05 04:10:53;;;;;;;11.07;10.70;;;19.10;99.90;;;;;;4953484;29;20449;-58
2021/11/05 04:13:20;;;;;;;11.50;11.10;;;19.10;99.90;;;;;;4953909;29;20790;-58
2021/11/05 04:15:47;;;;;;;11.70;11.30;;;19.00;99.90;;;;;;4953676;29;20484;-56
2021/11/05 04:18:14;;;;;;;11.70;11.20;;;19.10;99.90;;;;;;4953315;29;20480;-57
2021/11/05 04:20:41;;;;;;;11.80;11.40;;;19.10;99.90;;;;;;4953592;28;20503;-60
2021/11/05 04:23:09;;;;;;;11.50;11.10;;;19.10;99.90;;;;;;4953783;28;20464;-60
2021/11/05 04:25:36;;;;;;;12.20;11.80;;;19.20;99.90;;;;;;4953698;28;20448;-57
2021/11/05 04:28:04;;;;;;;11.20;10.80;;;19.20;99.90;;;;;;4953384;28;20484;-61
2021/11/05 04:30:31;;;;;;;11.20;10.80;;;19.20;99.90;;;;;;4953285;29;20461;-59
2021/11/05 04:32:57;;;;;;;11.03;10.63;;;19.20;99.90;;;;;;4953489;29;20456;-61
2021/11/05 04:35:24;;;;;;;11.87;11.47;;;19.10;99.90;;;;;;4953560;29;20457;-59
2021/11/05 04:37:51;;;;;;;11.57;11.17;;;19.10;99.90;;;;;;4953198;29;20468;-60
2021/11/05 04:40:19;;;;;;;12.40;12.00;;;19.10;99.90;;;;;;4953450;28;20824;-61
2021/11/05 04:42:46;;;;;;;12.20;11.80;;;19.10;99.90;;;;;;4953494;28;20453;-58
2021/11/05 04:45:12;;;;;;;12.47;11.97;;;19.10;99.90;;;;;;4953267;28;20833;-58
2021/11/05 04:47:39;;;;;;;11.70;11.30;;;19.00;99.90;;;;;;4953252;28;20444;-58
2021/11/05 04:50:07;;;;;;;11.90;11.50;;;19.10;99.90;;;;;;4953248;29;20942;-60
2021/11/05 04:52:34;;;;;;;12.57;12.00;;;19.10;99.90;;;;;;4953320;29;20456;-55
2021/11/05 04:55:01;;;;;;;11.47;11.07;;;19.10;99.90;;;;;;4953280;29;20799;-58
2021/11/05 04:57:29;;;;;;;11.10;10.70;;;19.10;99.90;;;;;;4953272;28;20847;-61
2021/11/05 04:59:55;;;;;;;12.00;11.60;;;19.10;99.90;;;;;;4953117;28;20511;-60
2021/11/05 05:02:22;;;;;;;12.97;12.47;;;19.10;99.90;;;;;;4953398;28;20460;-60
2021/11/05 05:04:50;;;;;;;12.67;12.17;;;19.10;99.90;;;;;;4953062;28;20457;-57
2021/11/05 05:07:17;;;;;;;12.87;12.37;;;19.00;99.90;;;;;;4953283;29;20456;-60
2021/11/05 05:09:44;;;;;;;12.20;11.70;;;19.10;99.90;;;;;;4952917;28;20476;-60
2021/11/05 05:12:11;;;;;;;12.67;12.23;;;19.10;99.90;;;;;;4953161;29;20461;-57
2021/11/05 05:14:39;;;;;;;13.20;12.70;;;19.00;99.90;;;;;;4952908;29;20527;-60
2021/11/05 05:17:06;;;;;;;13.20;12.70;;;19.00;99.90;;;;;;4953114;28;20484;-57
2021/11/05 05:19:34;;;;;;;12.80;12.40;;;19.10;99.90;;;;;;4953837;28;20500;-55
2021/11/05 05:22:00;;;;;;;13.00;12.57;;;19.10;99.90;;;;;;4956933;28;20460;-59
2021/11/05 05:24:27;;;;;;;12.57;12.17;;;19.10;99.90;;;;;;4956699;28;20452;-57
2021/11/05 05:26:54;;;;;;;12.60;12.20;;;19.10;99.90;;;;;;4956810;29;20448;-59
2021/11/05 05:29:22;;;;;;;13.00;12.50;;;19.00;99.90;;;;;;4956522;28;20476;-57
2021/11/05 05:31:50;;;;;;;12.83;12.43;;;19.10;99.90;;;;;;4956597;29;20466;-59
2021/11/05 05:34:17;;;;;;;13.60;13.20;;;19.10;99.90;;;;;;4956648;29;20457;-58
2021/11/05 05:36:43;;;;;;;13.90;13.30;;;19.10;99.90;;;;;;4956694;28;20491;-59
2021/11/05 05:39:11;;;;;;;13.10;12.70;;;19.00;99.90;;;;;;4956335;28;20479;-60
2021/11/05 05:41:37;;;;;;;13.07;12.63;;;19.00;99.90;;;;;;4956536;28;20444;-58
2021/11/05 05:44:05;;;;;;;13.90;13.30;;;19.00;99.90;;;;;;4956396;28;20456;-58
2021/11/05 05:46:32;;;;;;;13.53;13.07;;;19.00;99.90;;;;;;4956569;28;20499;-60
2021/11/05 05:49:00;;;;;;;12.60;12.20;;;19.00;99.90;;;;;;4956266;28;20483;-56
2021/11/05 05:51:30;;;;;;;13.33;12.93;;;19.00;99.90;;;;;;4956186;29;20456;-59
2021/11/05 05:53:57;;;;;;;13.07;12.67;;;19.40;99.90;;;;;;4956140;28;20523;-54
2021/11/05 05:56:24;;;;;;;12.80;12.40;;;20.00;99.90;;;;;;4956329;28;20484;-58
2021/11/05 05:58:51;;;;;;;12.63;12.23;;;20.80;99.90;;;;;;4956016;28;20464;-56
2021/11/05 06:01:17;;;;;;;13.57;12.93;;;21.30;99.30;;;;;;4956019;28;20463;-60
2021/11/05 06:03:44;;;;;;;14.17;13.67;;;21.60;98.00;;;;;;4937055;29;20869;-58
2021/11/05 06:06:12;;;;;;;13.63;13.23;;;21.80;97.10;;;;;;4936921;29;20493;-60
2021/11/05 06:08:40;;;;;;;14.07;13.57;;;21.90;96.50;;;;;;4936759;29;20464;-60
2021/11/05 06:11:07;;;;;;;14.43;13.93;;;21.90;95.80;;;;;;4936810;29;20457;-60
2021/11/05 06:13:34;;;;;;;13.23;12.83;;;21.90;95.50;;;;;;4954627;29;20838;-60
2021/11/05 06:16:01;;;;;;;14.30;13.80;;;22.00;95.30;;;;;;4955874;28;20456;-59
2021/11/05 06:18:28;;;;;;;13.13;12.73;;;22.00;95.00;;;;;;4955902;28;21049;-61
2021/11/05 06:20:55;;;;;;;12.83;12.43;;;22.00;94.80;;;;;;4955609;28;20826;-58
2021/11/05 06:23:23;;;;;;;13.43;13.03;;;22.00;94.70;;;;;;4955635;28;20453;-61
2021/11/05 06:25:50;;;;;;;13.83;13.40;;;22.00;94.60;;;;;;4955716;29;20453;-57
2021/11/05 06:28:17;;;;;;;14.40;13.90;;;21.90;94.40;;;;;;4955583;28;20850;-59
2021/11/05 06:30:43;;;;;;;13.70;13.30;;;21.90;94.40;;;;;;4954441;28;20461;-61
2021/11/05 06:33:10;;;;;;;12.43;12.03;;;21.80;94.30;;;;;;4955067;29;20977;-62
2021/11/05 06:35:37;;;;;;;11.00;10.60;;;21.80;94.40;;;;;;4955395;28;20448;-58
2021/11/05 06:38:04;;;;;;;10.90;10.60;;;21.80;94.40;;;;;;4955289;28;20994;-59
2021/11/05 06:40:32;;;;;;;11.20;10.80;;;21.80;94.30;;;;;;4955408;28;20452;-60
2021/11/05 06:42:58;;;;;;;12.47;11.97;;;21.70;94.20;;;;;;4955235;28;20459;-59
2021/11/05 06:45:28;;;;;;;11.83;11.53;;;21.70;94.20;;;;;;4955374;29;20452;-55
2021/11/05 06:47:55;;;;;;;11.67;11.30;;;21.60;94.20;;;;;;4955224;28;20476;-58
2021/11/05 06:50:22;;;;;;;12.10;11.77;;;21.60;94.20;;;;;;4955201;29;20451;-58
2021/11/05 06:52:49;;;;;;;11.93;11.60;;;21.60;94.30;;;;;;4955104;28;20472;-60
2021/11/05 06:55:16;;;;;;;13.13;12.73;;;21.50;94.40;;;;;;4955328;28;20473;-59
2021/11/05 06:57:44;;;;;;;11.97;11.57;;;21.40;94.40;;;;;;4955222;28;20500;-59
2021/11/05 07:00:13;;;;;;;13.33;12.93;;;21.40;94.60;;;;;;4954345;28;20449;-58
2021/11/05 07:02:41;;;;;;;14.20;13.60;;;21.40;94.70;;;;;;4955535;29;20449;-55
2021/11/05 07:05:09;;;;;;;14.10;13.60;;;21.40;95.00;;;;;;4954906;28;20457;-56
2021/11/05 07:07:36;;;;;;;12.65;12.15;;;21.40;95.10;;;;;;4949612;28;20451;-55
2021/11/05 07:10:04;;;;;;;14.43;13.93;;;21.30;95.50;;;;;;4943268;28;20623;-57
2021/11/05 07:12:31;;;;;;;13.83;13.43;;;21.30;95.80;;;;;;4943282;29;20440;-55
2021/11/05 07:14:59;;;;;;;12.77;12.37;;;21.30;96.00;;;;;;4943213;29;20460;-54
2021/11/05 07:17:26;;;;;;;12.80;12.40;;;21.30;96.20;;;;;;4943041;28;20869;-56
2021/11/05 07:19:53;;;;;;;13.80;13.40;;;21.20;96.40;;;;;;4943504;29;20453;-55
2021/11/05 07:22:19;;;;;;;12.67;12.20;;;21.20;96.40;;;;;;4943238;28;20811;-55
2021/11/05 07:24:47;;;;;;;12.93;12.53;;;21.20;96.50;;;;;;4943156;28;20452;-59
2021/11/05 07:27:14;;;;;;;13.70;13.30;;;21.10;96.80;;;;;;4943009;28;20449;-58
2021/11/05 07:29:42;;;;;;;14.03;13.63;;;21.10;97.10;;;;;;4942658;28;20524;-59
2021/11/05 07:32:10;;;;;;;13.93;13.53;;;21.00;97.20;;;;;;4943021;29;21072;-53
2021/11/05 07:34:40;;;;;;;14.33;13.93;;;21.00;97.50;;;;;;4939322;28;20579;-54
2021/11/05 07:37:14;;;;;;;15.00;14.40;;;21.00;97.60;;;;;;4942633;28;21078;-53
2021/11/05 07:39:42;;;;;;;13.30;12.80;;;21.00;97.70;;;;;;4941895;28;20476;-56
2021/11/05 07:42:09;;;;;;;14.00;13.60;;;21.00;97.80;;;;;;4942362;28;20459;-58
2021/11/05 07:44:37;;;;;;;13.97;13.57;;;20.90;98.10;;;;;;4942352;29;20459;-55
2021/11/05 07:47:04;;;;;;;14.30;13.80;;;20.80;98.30;;;;;;4942832;28;20475;-53
2021/11/05 07:49:32;;;;;;;14.40;13.90;;;20.80;98.50;;;;;;4941818;28;21068;-53
2021/11/05 07:52:00;;;;;;;11.70;11.40;;;20.70;98.60;;;;;;4931026;29;20815;-54
2021/11/05 07:54:27;;;;;;;12.50;12.13;;;20.70;98.90;;;;;;4942659;28;20461;-57
2021/11/05 07:56:54;;;;;;;11.60;11.30;;;20.60;99.00;;;;;;4942891;28;20495;-57
2021/11/05 07:59:21;;;;;;;12.10;11.70;;;20.60;99.20;;;;;;4940702;28;20485;-57
2021/11/05 08:01:48;;;;;;;12.90;12.40;;;20.70;99.20;;;;;;4941201;29;20453;-55
2021/11/05 08:04:15;;;;;;;12.20;11.80;;;20.60;99.10;;;;;;4940726;28;20445;-58
2021/11/05 08:06:43;;;;;;;11.77;11.37;;;20.60;99.30;;;;;;4940366;29;20458;-58
2021/11/05 08:09:10;;;;;;;13.87;13.27;;;20.60;99.30;;;;;;4941258;28;20925;-55
2021/11/05 08:11:36;;;;;;;11.67;11.30;;;20.60;99.20;;;;;;4941009;29;20836;-53
2021/11/05 08:14:03;;;;;;;13.10;12.70;;;20.60;99.40;;;;;;4940735;29;20894;-52
2021/11/05 08:16:30;;;;;;;13.80;13.10;;;20.50;99.40;;;;;;4940437;29;20449;-50
2021/11/05 08:18:57;;;;;;;13.17;12.57;;;20.50;99.50;;;;;;4940629;28;20930;-51
2021/11/05 08:21:24;;;;;;;14.40;13.53;;;20.60;99.90;;;;;;4940948;29;20453;-54
2021/11/05 08:23:52;;;;;;;15.73;14.63;;;20.50;99.90;;;;;;4940313;29;20875;-52
2021/11/05 08:26:19;;;;;;;14.87;13.57;;;20.50;99.90;;;;;;4939114;29;20496;-51
2021/11/05 08:28:46;;;;;;;12.67;11.70;;;20.50;99.90;;;;;;4942218;28;20813;-53
2021/11/05 08:31:15;;;;;;;13.83;12.63;;;20.50;99.90;;;;;;4942121;28;20464;-54
2021/11/05 08:33:42;;;;;;;13.13;11.80;;;20.60;99.90;;;;;;4942189;29;20523;-54
2021/11/05 08:36:11;;;;;;;11.77;10.97;;;20.60;99.90;;;;;;4941878;29;20456;-54
2021/11/05 08:38:38;;;;;;;12.20;10.97;;;20.60;99.90;;;;;;4941334;28;20527;-55
2021/11/05 08:41:07;;;;;;;17.30;12.20;;;20.60;99.90;;;;;;4940398;28;20453;-56
2021/11/05 08:43:35;;;;;;;11.93;11.23;;;20.60;99.90;;;;;;4939217;29;20457;-56
2021/11/05 08:46:04;;;;;;;13.27;12.03;;;20.60;99.90;;;;;;4940135;29;20457;-54
2021/11/05 08:48:31;;;;;;;14.87;13.00;;;20.50;99.90;;;;;;4926002;29;20476;-57
2021/11/05 08:50:58;;;;;;;11.63;10.80;;;20.50;99.90;;;;;;4937987;28;20953;-54
2021/11/05 08:53:25;;;;;;;14.70;12.13;;;20.60;99.90;;;;;;4934733;29;20483;-49
2021/11/05 08:55:52;;;;;;;13.00;11.83;;;20.60;99.90;;;;;;4931992;29;20959;-56
2021/11/05 08:58:21;;;;;;;12.87;11.57;;;20.60;99.90;;;;;;4942595;29;20576;-54
2021/11/05 09:00:48;;;;;;;13.80;12.60;;;20.60;99.90;;;;;;4944355;28;20459;-54
2021/11/05 09:03:15;;;;;;;12.97;11.63;;;20.60;99.90;;;;;;4943979;28;20453;-54
2021/11/05 09:05:42;;;;;;;12.30;11.17;;;20.50;99.90;;;;;;4943731;28;20453;-52
2021/11/05 09:08:09;;;;;;;11.37;10.77;;;20.50;99.90;;;;;;4943581;28;20464;-56
2021/11/05 09:10:37;;;;;;;12.90;12.07;;;20.60;99.90;;;;;;4943440;28;21245;-52
2021/11/05 09:13:05;;;;;;;12.13;11.33;;;20.60;99.90;;;;;;4944048;28;20515;-51
2021/11/05 09:15:36;;;;;;;12.97;11.77;;;20.60;99.90;;;;;;4927519;28;20475;-57
2021/11/05 09:18:07;;;;;;;12.90;11.90;;;20.60;99.90;;;;;;4935374;29;20667;-56
2021/11/05 09:20:34;;;;;;;13.37;12.30;;;20.60;99.90;;;;;;4942648;29;20894;-54
2021/11/05 09:23:01;;;;;;;12.63;11.80;;;20.70;99.90;;;;;;4943548;28;20464;-57
2021/11/05 09:25:29;;;;;;;12.10;11.40;;;20.70;99.90;;;;;;4943161;29;20483;-55
2021/11/05 09:27:57;;;;;;;13.50;12.50;;;20.70;99.90;;;;;;4942064;29;21389;-55
2021/11/05 09:30:24;;;;;;;11.90;10.90;;;20.70;99.90;;;;;;4943139;28;20464;-53
2021/11/05 09:32:55;;;;;;;12.70;12.00;;;20.70;99.90;;;;;;4943293;28;20452;-56
2021/11/05 09:35:25;;;;;;;12.43;11.50;;;20.80;99.90;;;;;;4942415;29;20932;-56
2021/11/05 09:37:53;;;;;;;14.00;12.90;;;20.70;99.90;;;;;;4943390;29;21267;-53
2021/11/05 09:40:24;;;;;;;13.10;12.30;;;20.80;99.90;;;;;;4941812;28;20560;-54
2021/11/05 09:42:53;;;;;;;13.27;12.30;;;20.70;99.90;;;;;;4939564;28;20456;-53
2021/11/05 09:45:21;;;;;;;12.53;11.80;;;20.80;99.90;;;;;;4941480;29;20571;-55
2021/11/05 09:47:49;;;;;;;15.80;12.87;;;20.80;99.90;;;;;;4942812;28;21150;-55
2021/11/05 09:50:21;;;;;;;13.10;12.13;;;20.80;99.90;;;;;;4942713;29;20459;-55
2021/11/05 09:52:48;;;;;;;13.90;13.20;;;20.80;99.90;;;;;;4942648;29;20459;-53
2021/11/05 09:55:17;;;;;;;13.67;12.40;;;20.80;99.90;;;;;;4942919;29;20456;-55
2021/11/05 09:57:44;;;;;;;12.03;11.43;;;20.80;99.90;;;;;;4941535;29;20488;-55
2021/11/05 10:00:16;;;;;;;12.80;12.20;;;20.80;99.90;;;;;;4942850;28;20547;-51
2021/11/05 10:02:44;;;;;;;12.57;11.80;;;20.80;99.90;;;;;;4941624;29;20907;-55
2021/11/05 10:05:12;;;;;;;12.80;12.13;;;20.90;99.90;;;;;;4942341;28;20463;-54
2021/11/05 10:07:48;;;;;;;12.47;11.67;;;20.80;99.90;;;;;;4942955;29;20451;-53
2021/11/05 10:10:15;;;;;;;11.97;11.50;;;20.80;99.90;;;;;;4942977;28;20463;-58
2021/11/05 10:12:54;;;;;;;12.30;11.43;;;20.80;99.90;;;;;;4931415;29;20501;-54
2021/11/05 10:15:20;;;;;;;18.20;17.20;;;21.00;99.90;;;;;;4955069;29;20449;-53
2021/11/05 10:17:48;;;;;;;16.83;15.90;;;20.40;99.90;;;;;;4954938;28;20512;-49
2021/11/05 10:20:15;;;;;;;17.80;16.80;;;20.00;99.90;;;;;;4955775;28;20441;-49
2021/11/05 10:22:50;;;;;;;16.40;15.60;;;19.60;99.90;;;;;;4956058;29;20453;-50
2021/11/05 10:25:27;;;;;;;18.07;16.77;;;19.30;99.90;;;;;;4955774;29;20545;-49
2021/11/05 10:28:14;;;;;;;16.80;15.90;;;18.90;99.90;;;;;;4955624;28;20471;-49
2021/11/05 10:30:55;;;;;;;17.37;16.27;;;18.80;99.90;;;;;;4955337;28;20460;-49
2021/11/05 10:33:28;;;;;;;15.80;14.70;;;18.80;99.90;;;;;;4955736;28;20448;-50
2021/11/05 10:35:57;;;;;;;15.90;15.10;;;19.00;99.90;;;;;;4955695;29;20508;-51
2021/11/05 10:38:25;;;;;;;16.50;15.50;;;18.90;99.90;;;;;;4955397;28;20484;-49
2021/11/05 10:40:54;;;;;;;15.80;14.90;;;18.70;99.90;;;;;;4955191;29;20805;-54
2021/11/05 10:43:32;;;;;;;15.90;15.10;;;18.60;99.90;;;;;;4955555;29;20452;-56
2021/11/05 10:45:59;;;;;;;16.17;15.47;;;18.40;99.90;;;;;;4955412;29;20464;-57
2021/11/05 10:48:28;;;;;;;16.70;15.60;;;18.70;99.90;;;;;;4955220;28;20469;-54
2021/11/05 10:50:56;;;;;;;17.17;16.07;;;18.50;99.90;;;;;;4955079;29;20453;-55
2021/11/05 10:53:26;;;;;;;17.87;16.97;;;18.10;99.90;;;;;;4955163;29;20449;-49
2021/11/05 10:55:55;;;;;;;16.00;15.17;;;18.40;99.90;;;;;;4955368;29;20902;-49
2021/11/05 10:58:25;;;;;;;16.40;15.60;;;18.50;99.90;;;;;;4955003;28;20492;-49
2021/11/05 11:00:55;;;;;;;17.13;16.07;;;18.30;99.90;;;;;;4955044;28;20444;-54
2021/11/05 11:03:25;;;;;;;15.70;14.87;;;18.70;99.90;;;;;;4955109;28;20452;-49
2021/11/05 11:05:53;;;;;;;15.37;14.67;;;18.60;99.90;;;;;;4955131;29;20950;-52
2021/11/05 11:08:23;;;;;;;16.23;15.53;;;18.70;99.90;;;;;;4954845;28;20504;-56
2021/11/05 11:10:52;;;;;;;15.60;14.77;;;18.70;99.90;;;;;;4954724;29;20456;-53
2021/11/05 11:13:31;;;;;;;15.97;15.30;;;19.50;99.90;;;;;;4954887;29;20837;-54
2021/11/05 11:15:58;;;;;;;16.97;16.17;;;19.40;99.90;;;;;;4948884;29;20507;-54
2021/11/05 11:18:26;;;;;;;16.67;15.87;;;18.90;99.90;;;;;;4946225;29;20507;-55
2021/11/05 11:20:52;;;;;;;15.50;14.70;;;19.80;99.90;;;;;;4954633;28;20463;-54
2021/11/05 11:23:20;;;;;;;16.00;15.30;;;20.40;97.90;;;;;;4955471;28;20475;-57
2021/11/05 11:25:47;;;;;;;15.00;14.30;;;20.10;97.10;;;;;;4952401;29;20449;-56
2021/11/05 11:28:15;;;;;;;13.83;13.00;;;19.60;98.30;;;;;;4954077;28;20998;-54
2021/11/05 11:30:42;;;;;;;13.93;13.33;;;19.10;99.90;;;;;;4954259;28;20460;-52
2021/11/05 11:33:09;;;;;;;12.67;12.27;;;19.50;99.90;;;;;;4954885;29;20455;-53
2021/11/05 11:35:37;;;;;;;12.33;11.67;;;19.80;99.90;;;;;;4954299;28;20453;-55
2021/11/05 11:38:05;;;;;;;12.13;11.67;;;20.50;99.90;;;;;;4954895;28;20498;-57
2021/11/05 11:40:31;;;;;;;12.00;11.53;;;20.70;99.90;;;;;;4954905;28;20958;-56
2021/11/05 11:42:58;;;;;;;12.23;11.63;;;21.30;99.90;;;;;;4955197;28;20445;-55
2021/11/05 11:45:27;;;;;;;11.70;11.40;;;21.50;99.30;;;;;;4954170;29;20449;-56
2021/11/05 11:47:56;;;;;;;14.00;13.40;;;21.30;99.30;;;;;;4954778;28;20476;-52
2021/11/05 11:50:25;;;;;;;13.10;12.70;;;21.30;99.60;;;;;;4954438;28;20457;-55
2021/11/05 11:53:03;;;;;;;13.23;12.73;;;21.40;99.70;;;;;;4954228;28;20480;-51
2021/11/05 11:55:31;;;;;;;12.53;12.13;;;21.70;98.80;;;;;;4953625;28;20449;-48
2021/11/05 11:58:09;;;;;;;13.13;12.73;;;21.70;98.40;;;;;;4953920;28;20495;-49
2021/11/05 12:00:39;;;;;;;12.73;12.03;;;21.30;99.00;;;;;;4953423;29;20452;-50
2021/11/05 12:03:07;;;;;;;12.10;11.70;;;21.00;99.90;;;;;;4954216;28;20453;-52
2021/11/05 12:05:43;;;;;;;12.97;12.30;;;21.30;99.90;;;;;;4953787;28;20452;-52
2021/11/05 12:08:27;;;;;;;12.43;11.93;;;21.40;99.40;;;;;;4953836;28;21059;-49
2021/11/05 12:10:55;;;;;;;11.77;11.37;;;21.10;99.90;;;;;;4953568;29;20971;-47
2021/11/05 12:13:43;;;;;;;12.80;12.30;;;21.00;99.90;;;;;;4953532;28;20831;-52
2021/11/05 12:16:24;;;;;;;12.87;12.47;;;21.00;99.90;;;;;;4949714;29;20452;-48
2021/11/05 12:19:17;;;;;;;12.13;11.73;;;21.10;99.90;;;;;;4953263;28;20484;-49
2021/11/05 12:21:47;;;;;;;11.90;11.50;;;21.10;99.90;;;;;;4953595;29;20445;-52
2021/11/05 12:24:29;;;;;;;11.80;11.40;;;21.20;99.90;;;;;;4953690;29;20460;-57
2021/11/05 12:26:59;;;;;;;11.97;11.67;;;21.10;99.90;;;;;;4934764;29;20477;-55
2021/11/05 12:29:53;;;;;;;12.03;11.63;;;21.00;99.90;;;;;;4940618;29;20477;-57
2021/11/05 12:32:30;;;;;;;12.27;11.87;;;20.90;99.90;;;;;;4954007;29;20449;-54